Time;durP1;ratioP1;P1;durP2;ratioP2;P2;SDS_P1;SDS_P2;PMS_P1;PMS_P2;Temp;Humidity;BMP_temperature;BMP_pressure;BME280_temperature;BME280_humidity;BME280_pressure;Samples;Min_cycle;Max_cycle;Signal;HPM_P1;HPM_P2
2022/02/15 00:00:18;;;;;;;3.28;1.80;;;21.90;47.20;;;;;;4993965;28;20042;-69
2022/02/15 00:02:43;;;;;;;3.25;1.88;;;21.90;47.30;;;;;;5000675;28;20034;-70
2022/02/15 00:05:09;;;;;;;3.00;2.00;;;21.90;47.20;;;;;;4996939;28;20486;-69
2022/02/15 00:07:35;;;;;;;3.60;1.98;;;21.90;47.30;;;;;;4995800;28;20038;-69
2022/02/15 00:10:02;;;;;;;3.88;2.03;;;21.90;47.30;;;;;;4995974;28;20631;-67
2022/02/15 00:12:27;;;;;;;3.08;2.10;;;21.90;47.30;;;;;;4997015;28;20049;-67
2022/02/15 00:14:53;;;;;;;2.75;1.75;;;21.90;47.30;;;;;;4995248;28;20030;-69
2022/02/15 00:17:18;;;;;;;3.25;1.90;;;21.90;47.30;;;;;;4994478;28;20144;-67
2022/02/15 00:19:44;;;;;;;4.25;1.70;;;21.90;47.40;;;;;;4996356;28;20103;-66
2022/02/15 00:22:10;;;;;;;2.95;1.80;;;21.80;47.30;;;;;;4997027;28;20064;-70
2022/02/15 00:24:35;;;;;;;2.90;1.80;;;21.80;47.30;;;;;;4996150;28;20049;-69
2022/02/15 00:27:01;;;;;;;2.42;1.67;;;21.80;47.30;;;;;;4996511;28;20034;-69
2022/02/15 00:29:27;;;;;;;2.97;1.90;;;21.80;47.30;;;;;;5010244;28;20034;-68
2022/02/15 00:31:53;;;;;;;2.88;1.70;;;21.80;47.30;;;;;;4994892;28;20376;-69
2022/02/15 00:34:18;;;;;;;3.25;1.80;;;21.80;47.30;;;;;;4996055;28;20030;-66
2022/02/15 00:36:44;;;;;;;3.60;1.60;;;21.80;47.30;;;;;;4999457;28;20065;-69
2022/02/15 00:39:10;;;;;;;3.00;1.63;;;21.80;47.40;;;;;;5001227;28;20391;-67
2022/02/15 00:41:36;;;;;;;3.20;1.73;;;21.80;47.40;;;;;;4999360;28;20045;-66
2022/02/15 00:44:02;;;;;;;2.85;1.77;;;21.80;47.30;;;;;;5000183;28;20030;-67
2022/02/15 00:46:28;;;;;;;2.67;1.80;;;21.80;47.40;;;;;;4997833;28;20030;-67
2022/02/15 00:48:53;;;;;;;2.85;1.73;;;21.80;47.90;;;;;;5000510;28;20497;-68
2022/02/15 00:51:19;;;;;;;3.15;1.75;;;21.80;47.40;;;;;;5001008;28;20378;-69
2022/02/15 00:53:44;;;;;;;2.10;1.33;;;21.70;47.40;;;;;;5000009;28;20061;-67
2022/02/15 00:56:10;;;;;;;2.85;1.60;;;21.70;47.40;;;;;;5001198;28;20030;-70
2022/02/15 00:58:36;;;;;;;2.95;1.85;;;21.70;47.40;;;;;;4998897;28;20031;-70
2022/02/15 01:01:02;;;;;;;3.25;1.90;;;21.70;47.40;;;;;;4998681;28;20038;-70
2022/02/15 01:03:27;;;;;;;2.30;1.60;;;21.70;47.40;;;;;;5013115;28;20026;-70
2022/02/15 01:05:53;;;;;;;2.92;1.67;;;21.70;47.40;;;;;;4999843;28;20036;-67
2022/02/15 01:08:18;;;;;;;2.58;1.52;;;21.70;47.90;;;;;;4999730;28;20030;-67
2022/02/15 01:10:46;;;;;;;2.83;1.60;;;21.70;47.40;;;;;;5000986;28;20714;-67
2022/02/15 01:13:12;;;;;;;2.50;1.60;;;21.70;47.40;;;;;;4999483;28;20147;-70
2022/02/15 01:15:38;;;;;;;3.45;1.88;;;21.70;47.40;;;;;;4998751;28;20064;-67
2022/02/15 01:18:04;;;;;;;2.90;1.80;;;21.70;47.40;;;;;;4998530;28;20135;-67
2022/02/15 01:20:30;;;;;;;3.05;1.60;;;21.70;47.40;;;;;;4997090;28;20180;-70
2022/02/15 01:22:56;;;;;;;3.15;1.67;;;21.70;47.40;;;;;;4999889;28;20072;-70
2022/02/15 01:25:23;;;;;;;2.50;1.60;;;21.70;47.50;;;;;;5015476;28;20121;-69
2022/02/15 01:27:49;;;;;;;2.33;1.40;;;21.60;47.40;;;;;;4998823;28;20042;-67
2022/02/15 01:30:15;;;;;;;2.40;1.40;;;21.70;47.50;;;;;;4997419;28;20080;-69
2022/02/15 01:32:41;;;;;;;2.80;1.65;;;21.60;47.40;;;;;;4997066;28;20455;-67
2022/02/15 01:35:08;;;;;;;2.53;1.50;;;21.60;47.40;;;;;;5014249;28;20030;-70
2022/02/15 01:37:33;;;;;;;2.78;1.80;;;21.60;47.50;;;;;;4999195;28;20067;-67
2022/02/15 01:39:59;;;;;;;2.90;1.70;;;21.60;47.50;;;;;;4998947;28;20502;-66
2022/02/15 01:42:24;;;;;;;2.72;1.58;;;21.60;47.50;;;;;;4997631;28;20576;-67
2022/02/15 01:44:50;;;;;;;2.42;1.50;;;21.60;47.50;;;;;;4998062;28;20333;-70
2022/02/15 01:47:24;;;;;;;2.53;1.42;;;21.60;47.50;;;;;;4994879;28;20030;-69
2022/02/15 01:49:50;;;;;;;2.35;1.52;;;21.60;47.50;;;;;;4998489;28;20398;-68
2022/02/15 01:52:16;;;;;;;2.08;1.50;;;21.60;47.50;;;;;;4999313;28;20030;-70
2022/02/15 01:54:41;;;;;;;2.13;1.40;;;21.60;48.00;;;;;;5000027;28;20231;-68
2022/02/15 01:57:07;;;;;;;3.15;1.52;;;21.60;47.50;;;;;;4998969;28;20032;-68
2022/02/15 01:59:33;;;;;;;2.83;1.52;;;21.50;47.50;;;;;;4997754;28;20577;-70
2022/02/15 02:01:58;;;;;;;2.33;1.52;;;21.50;47.40;;;;;;5013004;28;20045;-68
2022/02/15 02:07:08;;;;;;;2.22;1.40;;;21.50;47.50;;;;;;4999388;28;20480;-67
2022/02/15 02:09:34;;;;;;;2.65;1.60;;;21.60;47.60;;;;;;4998441;28;20061;-70
2022/02/15 02:11:59;;;;;;;2.25;1.50;;;21.50;48.00;;;;;;4998815;28;20034;-70
2022/02/15 02:14:25;;;;;;;2.22;1.50;;;21.60;47.60;;;;;;4998192;28;20134;-70
2022/02/15 02:16:51;;;;;;;2.45;1.58;;;21.50;47.50;;;;;;4998715;28;20145;-67
2022/02/15 02:19:16;;;;;;;2.85;1.50;;;21.50;47.50;;;;;;4996148;28;20053;-67
2022/02/15 02:21:42;;;;;;;2.45;1.50;;;21.50;47.50;;;;;;4998792;28;20090;-70
2022/02/15 02:24:08;;;;;;;3.30;1.60;;;21.50;47.50;;;;;;4999233;28;20026;-67
2022/02/15 02:26:34;;;;;;;2.33;1.52;;;21.50;47.50;;;;;;4998012;28;20034;-68
2022/02/15 02:28:59;;;;;;;2.58;1.30;;;21.50;47.60;;;;;;4996813;28;20030;-67
2022/02/15 02:31:25;;;;;;;2.05;1.33;;;21.50;47.50;;;;;;5011791;28;20177;-70
2022/02/15 02:33:51;;;;;;;2.20;1.50;;;21.50;47.60;;;;;;4997938;28;20030;-70
2022/02/15 02:36:17;;;;;;;2.10;1.42;;;21.50;47.60;;;;;;4998654;28;20118;-70
2022/02/15 02:38:43;;;;;;;1.95;1.30;;;21.50;47.60;;;;;;4997758;28;20113;-67
2022/02/15 02:41:08;;;;;;;2.47;1.70;;;21.40;47.50;;;;;;4997646;28;20038;-68
2022/02/15 02:43:34;;;;;;;2.45;1.30;;;21.40;47.60;;;;;;4997823;28;20062;-67
2022/02/15 02:46:00;;;;;;;2.70;1.40;;;21.40;47.60;;;;;;4995176;28;20108;-68
2022/02/15 02:48:25;;;;;;;2.42;1.30;;;21.50;47.60;;;;;;4997256;28;20038;-67
2022/02/15 02:50:51;;;;;;;2.63;1.42;;;21.50;47.70;;;;;;4998438;28;20029;-67
2022/02/15 02:53:17;;;;;;;3.28;1.50;;;21.40;47.60;;;;;;5013846;28;20474;-70
2022/02/15 02:55:43;;;;;;;2.17;1.40;;;21.50;47.60;;;;;;5003700;28;20061;-68
2022/02/15 02:58:08;;;;;;;2.10;1.48;;;21.50;47.60;;;;;;4997054;28;20069;-67
2022/02/15 03:00:34;;;;;;;2.33;1.40;;;21.40;47.60;;;;;;4993526;28;20042;-70
2022/02/15 03:03:07;;;;;;;2.40;1.40;;;21.40;47.60;;;;;;4996546;28;20026;-70
2022/02/15 03:05:33;;;;;;;2.58;1.65;;;21.40;47.60;;;;;;4996223;28;20563;-68
2022/02/15 03:07:59;;;;;;;2.25;1.27;;;21.40;47.60;;;;;;4999498;28;20033;-70
2022/02/15 03:10:24;;;;;;;2.25;1.27;;;21.40;47.60;;;;;;4997201;28;20026;-70
2022/02/15 03:12:50;;;;;;;2.15;1.38;;;21.40;47.60;;;;;;5012788;28;20060;-67
2022/02/15 03:15:15;;;;;;;2.58;1.50;;;21.40;47.60;;;;;;4995998;28;20022;-68
2022/02/15 03:17:41;;;;;;;2.17;1.38;;;21.40;47.60;;;;;;4995346;28;20558;-69
2022/02/15 03:20:09;;;;;;;2.35;1.30;;;21.40;47.60;;;;;;4995213;28;20041;-70
2022/02/15 03:22:34;;;;;;;2.45;1.35;;;21.30;47.60;;;;;;4998784;28;20025;-70
2022/02/15 03:25:00;;;;;;;2.20;1.30;;;21.40;47.60;;;;;;4995910;28;20092;-70
2022/02/15 03:27:26;;;;;;;1.90;1.23;;;21.40;47.60;;;;;;4996569;28;20056;-68
2022/02/15 03:29:52;;;;;;;2.15;1.40;;;21.40;47.70;;;;;;4995525;28;20060;-70
2022/02/15 03:32:18;;;;;;;2.13;1.30;;;21.40;47.70;;;;;;4997360;28;20398;-70
2022/02/15 03:34:44;;;;;;;1.70;1.20;;;21.30;47.60;;;;;;4996235;28;20247;-68
2022/02/15 03:37:10;;;;;;;2.97;1.80;;;21.40;47.70;;;;;;4997805;28;20389;-68
2022/02/15 03:39:36;;;;;;;2.40;1.40;;;21.30;47.70;;;;;;4997128;28;20050;-67
2022/02/15 03:44:47;;;;;;;1.90;1.20;;;21.30;47.70;;;;;;4996014;28;20402;-69
2022/02/15 03:47:13;;;;;;;2.08;1.30;;;21.30;47.60;;;;;;4995918;28;20562;-70
2022/02/15 03:49:38;;;;;;;1.70;1.15;;;21.30;47.70;;;;;;4995872;28;20034;-68
2022/02/15 03:52:04;;;;;;;1.85;1.15;;;21.30;47.70;;;;;;4997352;28;20026;-70
2022/02/15 03:54:30;;;;;;;2.20;1.30;;;21.30;47.70;;;;;;4996912;28;20403;-67
2022/02/15 03:56:56;;;;;;;2.05;1.30;;;21.30;47.70;;;;;;4996947;28;20033;-68
2022/02/15 03:59:21;;;;;;;2.30;1.25;;;21.30;47.70;;;;;;4995619;28;20045;-70
2022/02/15 04:01:47;;;;;;;1.83;1.17;;;21.30;47.70;;;;;;4995608;28;20144;-67
2022/02/15 04:04:13;;;;;;;1.92;1.20;;;21.30;47.70;;;;;;4994110;28;20034;-70
2022/02/15 04:06:38;;;;;;;1.98;1.17;;;21.30;47.70;;;;;;4997689;28;20042;-68
2022/02/15 04:09:04;;;;;;;2.13;1.27;;;21.30;47.70;;;;;;4997157;28;20033;-70
2022/02/15 04:11:30;;;;;;;1.63;1.10;;;21.30;47.70;;;;;;4995951;28;20030;-67
2022/02/15 04:13:55;;;;;;;1.65;1.20;;;21.30;47.70;;;;;;4995250;28;20026;-68
2022/02/15 04:16:21;;;;;;;1.75;1.20;;;21.30;47.80;;;;;;5010784;28;20434;-67
2022/02/15 04:18:48;;;;;;;1.95;1.30;;;21.30;48.30;;;;;;4993708;28;20026;-67
2022/02/15 04:21:15;;;;;;;1.30;1.02;;;21.30;47.70;;;;;;4995946;28;20411;-70
2022/02/15 04:23:42;;;;;;;1.60;1.20;;;21.30;47.70;;;;;;4995131;28;20099;-69
2022/02/15 04:26:07;;;;;;;2.30;1.33;;;21.30;47.80;;;;;;4996653;28;20029;-69
2022/02/15 04:28:33;;;;;;;2.20;1.20;;;21.20;47.70;;;;;;4994684;28;20042;-69
2022/02/15 04:30:59;;;;;;;1.65;1.20;;;21.20;47.70;;;;;;4999555;28;20466;-70
2022/02/15 04:33:24;;;;;;;1.73;1.23;;;21.20;47.80;;;;;;4994040;28;20025;-70
2022/02/15 04:35:50;;;;;;;2.05;1.10;;;21.20;47.70;;;;;;5000564;28;20035;-69
2022/02/15 04:38:16;;;;;;;1.60;1.05;;;21.20;47.80;;;;;;4996846;28;20034;-70
2022/02/15 04:40:42;;;;;;;1.95;1.10;;;21.20;47.80;;;;;;4995842;28;20423;-69
2022/02/15 04:43:07;;;;;;;1.80;1.10;;;21.20;47.80;;;;;;4994764;28;20026;-69
2022/02/15 04:45:33;;;;;;;1.92;1.30;;;21.20;47.80;;;;;;4994722;28;20046;-67
2022/02/15 04:47:59;;;;;;;1.75;1.00;;;21.20;48.30;;;;;;4996591;28;20041;-70
2022/02/15 04:50:25;;;;;;;1.95;1.30;;;21.20;47.80;;;;;;4996188;28;20022;-69
2022/02/15 04:52:50;;;;;;;2.10;1.30;;;21.20;47.80;;;;;;4997058;28;20038;-67
2022/02/15 04:55:17;;;;;;;1.40;0.95;;;21.20;47.80;;;;;;4996759;28;20495;-67
2022/02/15 04:57:43;;;;;;;1.75;1.17;;;21.20;47.80;;;;;;4996075;28;20031;-67
2022/02/15 05:00:09;;;;;;;1.70;1.20;;;21.20;47.80;;;;;;4995011;28;20351;-68
2022/02/15 05:02:35;;;;;;;1.75;0.90;;;21.20;47.80;;;;;;4995749;28;20600;-69
2022/02/15 05:05:00;;;;;;;1.73;0.98;;;21.20;47.90;;;;;;4995151;28;20045;-69
2022/02/15 05:07:28;;;;;;;1.25;0.90;;;21.20;47.90;;;;;;4997549;28;20029;-70
2022/02/15 05:09:55;;;;;;;2.28;1.23;;;21.10;47.80;;;;;;4995087;28;20022;-67
2022/02/15 05:12:20;;;;;;;1.83;1.05;;;21.20;47.90;;;;;;4995027;28;20803;-69
2022/02/15 05:14:46;;;;;;;1.90;1.10;;;21.20;47.90;;;;;;4994113;28;20027;-68
2022/02/15 05:17:12;;;;;;;1.60;1.02;;;21.20;47.90;;;;;;4995400;28;20367;-70
2022/02/15 05:19:39;;;;;;;2.10;1.10;;;21.10;47.90;;;;;;4994671;28;20026;-68
2022/02/15 05:22:05;;;;;;;1.83;1.20;;;21.10;47.90;;;;;;4998195;28;20197;-68
2022/02/15 05:24:31;;;;;;;2.55;1.10;;;21.10;47.90;;;;;;5000491;28;20114;-67
2022/02/15 05:26:57;;;;;;;1.27;1.00;;;21.10;47.90;;;;;;4999315;28;20057;-69
2022/02/15 05:29:23;;;;;;;1.60;1.10;;;21.10;47.90;;;;;;4997741;28;20132;-70
2022/02/15 05:31:49;;;;;;;2.00;1.00;;;21.10;47.90;;;;;;4997702;28;20478;-69
2022/02/15 05:34:15;;;;;;;1.52;1.10;;;21.10;47.90;;;;;;4998326;28;20030;-70
2022/02/15 05:36:41;;;;;;;1.60;0.95;;;21.10;48.00;;;;;;4999633;28;20123;-69
2022/02/15 05:39:08;;;;;;;1.45;0.95;;;21.10;48.00;;;;;;4999961;28;20458;-70
2022/02/15 05:41:34;;;;;;;1.92;1.10;;;21.10;48.00;;;;;;5014127;28;20040;-70
2022/02/15 05:43:59;;;;;;;1.60;1.00;;;21.10;48.00;;;;;;4998086;28;20398;-70
2022/02/15 05:46:25;;;;;;;1.58;1.02;;;21.10;48.00;;;;;;4999462;28;20048;-67
2022/02/15 05:48:50;;;;;;;1.50;0.90;;;21.10;48.00;;;;;;4998151;28;20038;-68
2022/02/15 05:51:16;;;;;;;1.38;1.00;;;21.10;48.00;;;;;;5013129;28;20025;-68
2022/02/15 05:53:42;;;;;;;1.60;1.10;;;21.10;48.00;;;;;;5002910;28;20041;-69
2022/02/15 05:56:07;;;;;;;1.52;1.00;;;21.10;48.00;;;;;;4999365;28;20386;-70
2022/02/15 05:58:33;;;;;;;1.20;0.90;;;21.10;48.60;;;;;;4998394;28;20509;-67
2022/02/15 06:01:01;;;;;;;1.83;1.10;;;21.10;48.00;;;;;;4996776;28;20034;-70
2022/02/15 06:06:12;;;;;;;1.73;1.10;;;21.10;48.00;;;;;;4998895;28;20413;-67
2022/02/15 06:08:37;;;;;;;1.58;1.00;;;21.10;48.10;;;;;;4998006;28;20038;-68
2022/02/15 06:11:03;;;;;;;1.38;0.80;;;21.10;48.10;;;;;;4998338;28;20075;-69
2022/02/15 06:13:30;;;;;;;1.30;1.00;;;21.10;48.60;;;;;;4999038;28;20632;-68
2022/02/15 06:15:55;;;;;;;2.53;0.90;;;21.10;48.10;;;;;;4996921;28;20030;-69
2022/02/15 06:18:21;;;;;;;1.70;1.00;;;21.10;48.10;;;;;;4997175;28;20099;-69
2022/02/15 06:20:47;;;;;;;2.25;0.90;;;21.10;48.20;;;;;;4997801;28;20536;-70
2022/02/15 06:23:13;;;;;;;1.85;1.10;;;21.10;48.30;;;;;;4998773;28;20088;-68
2022/02/15 06:25:39;;;;;;;1.77;0.98;;;21.00;48.20;;;;;;4999131;28;20402;-70
2022/02/15 06:28:04;;;;;;;1.63;1.00;;;21.00;48.30;;;;;;4997368;28;20235;-68
2022/02/15 06:30:30;;;;;;;1.70;0.93;;;21.00;48.90;;;;;;4997555;28;20034;-70
2022/02/15 06:32:56;;;;;;;1.50;0.90;;;21.00;48.40;;;;;;4997797;28;20030;-66
2022/02/15 06:35:22;;;;;;;1.85;1.05;;;21.00;48.50;;;;;;5013101;28;20073;-67
2022/02/15 06:37:50;;;;;;;1.60;1.08;;;21.00;48.50;;;;;;4997824;28;20034;-67
2022/02/15 06:40:18;;;;;;;1.53;1.00;;;21.00;48.50;;;;;;4998190;28;20036;-67
2022/02/15 06:42:45;;;;;;;1.70;0.90;;;21.00;48.60;;;;;;4999105;28;20284;-70
2022/02/15 06:45:10;;;;;;;1.85;0.90;;;21.00;48.60;;;;;;4996880;28;20109;-69
2022/02/15 06:47:36;;;;;;;2.10;1.00;;;21.00;49.10;;;;;;4997851;28;20030;-70
2022/02/15 06:50:03;;;;;;;1.75;1.00;;;21.00;48.70;;;;;;4998998;28;20030;-70
2022/02/15 06:52:29;;;;;;;1.92;0.93;;;21.00;48.70;;;;;;4997391;28;20135;-67
2022/02/15 06:54:55;;;;;;;1.85;0.95;;;21.00;48.70;;;;;;4998146;28;20412;-68
2022/02/15 06:57:21;;;;;;;1.45;0.85;;;21.10;48.70;;;;;;4997692;28;20037;-70
2022/02/15 06:59:47;;;;;;;1.70;1.00;;;21.00;48.70;;;;;;4995990;28;20375;-69
2022/02/15 07:02:12;;;;;;;1.70;1.00;;;21.00;48.60;;;;;;5011821;28;20168;-67
2022/02/15 07:04:38;;;;;;;1.10;0.90;;;21.00;48.60;;;;;;4995711;28;20026;-68
2022/02/15 07:07:04;;;;;;;1.83;1.00;;;21.00;48.60;;;;;;5012902;28;20482;-70
2022/02/15 07:09:31;;;;;;;1.77;1.00;;;21.00;48.60;;;;;;4996481;28;20520;-70
2022/02/15 07:11:56;;;;;;;2.33;1.00;;;21.00;48.60;;;;;;4998691;28;20216;-68
2022/02/15 07:14:22;;;;;;;1.75;0.90;;;21.00;48.60;;;;;;4997972;28;20180;-68
2022/02/15 07:16:48;;;;;;;1.83;0.98;;;21.00;48.60;;;;;;4994929;28;20129;-67
2022/02/15 07:19:14;;;;;;;2.13;1.00;;;21.00;48.60;;;;;;4995749;28;20486;-69
2022/02/15 07:21:42;;;;;;;2.20;1.02;;;21.00;48.70;;;;;;4995770;28;20448;-68
2022/02/15 07:24:08;;;;;;;2.67;1.15;;;21.00;48.70;;;;;;5009185;28;20141;-70
2022/02/15 07:26:33;;;;;;;2.15;1.05;;;21.00;48.70;;;;;;4995073;28;20129;-66
2022/02/15 07:28:59;;;;;;;2.13;1.00;;;21.00;49.20;;;;;;4995682;28;20137;-69
2022/02/15 07:31:25;;;;;;;1.95;0.90;;;21.00;48.70;;;;;;4995885;28;20081;-69
2022/02/15 07:33:50;;;;;;;2.00;1.10;;;21.00;48.70;;;;;;4996128;28;20018;-65
2022/02/15 07:36:17;;;;;;;1.77;0.98;;;21.00;48.60;;;;;;4997368;28;20209;-69
2022/02/15 07:38:43;;;;;;;1.73;0.90;;;21.00;48.70;;;;;;4997290;28;20048;-68
2022/02/15 07:41:09;;;;;;;2.00;1.10;;;21.00;48.60;;;;;;4996732;28;20030;-68
2022/02/15 07:43:35;;;;;;;1.52;0.95;;;21.00;48.70;;;;;;4997290;28;20208;-68
2022/02/15 07:46:01;;;;;;;1.95;1.10;;;21.00;48.60;;;;;;4996090;28;20557;-68
2022/02/15 07:48:27;;;;;;;1.40;0.90;;;21.00;48.60;;;;;;5011790;28;20030;-68
2022/02/15 07:50:53;;;;;;;2.30;1.10;;;21.00;48.60;;;;;;4996032;28;20494;-69
2022/02/15 07:53:19;;;;;;;1.65;0.88;;;21.00;48.60;;;;;;4997914;28;20030;-66
2022/02/15 07:55:44;;;;;;;2.67;1.23;;;21.00;48.60;;;;;;4997828;28;20034;-69
2022/02/15 07:58:10;;;;;;;2.17;0.93;;;21.00;48.60;;;;;;4996009;28;20034;-66
2022/02/15 08:00:36;;;;;;;2.30;1.15;;;21.00;48.60;;;;;;4994556;28;20042;-68
2022/02/15 08:03:02;;;;;;;1.58;0.90;;;21.00;48.60;;;;;;4996764;28;20029;-69
2022/02/15 08:05:28;;;;;;;1.63;0.93;;;20.90;48.50;;;;;;5011390;28;20125;-69
2022/02/15 08:07:56;;;;;;;2.78;1.10;;;20.90;48.50;;;;;;4997712;28;20143;-69
2022/02/15 08:10:23;;;;;;;1.52;0.90;;;20.90;48.50;;;;;;4995121;28;20065;-68
2022/02/15 08:12:55;;;;;;;2.00;1.00;;;21.00;48.60;;;;;;4997826;28;20032;-68
2022/02/15 08:15:28;;;;;;;2.03;1.08;;;20.90;48.60;;;;;;5001397;28;20513;-68
2022/02/15 08:17:56;;;;;;;3.22;1.20;;;20.90;48.50;;;;;;4997091;28;20490;-68
2022/02/15 08:20:21;;;;;;;1.75;1.00;;;20.90;48.50;;;;;;4995435;28;20030;-69
2022/02/15 08:22:47;;;;;;;1.75;0.90;;;20.90;48.50;;;;;;4997128;28;20026;-66
2022/02/15 08:25:13;;;;;;;2.53;1.00;;;20.90;48.50;;;;;;4997149;28;20096;-69
2022/02/15 08:27:39;;;;;;;2.35;0.90;;;20.90;49.00;;;;;;4996900;28;20471;-69
2022/02/15 08:30:06;;;;;;;1.80;1.00;;;20.90;48.50;;;;;;4994543;28;20542;-68
2022/02/15 08:32:31;;;;;;;1.58;0.90;;;20.90;48.50;;;;;;4996613;28;20505;-65
2022/02/15 08:34:57;;;;;;;2.53;1.10;;;20.90;48.50;;;;;;4996930;28;20029;-68
2022/02/15 08:37:23;;;;;;;1.50;0.90;;;20.90;48.50;;;;;;5012458;28;20025;-69
2022/02/15 08:39:48;;;;;;;1.52;0.80;;;20.90;48.50;;;;;;5009117;28;20387;-68
2022/02/15 08:42:14;;;;;;;1.92;1.05;;;20.90;48.50;;;;;;5011291;28;20046;-69
2022/02/15 08:44:40;;;;;;;1.70;0.93;;;20.90;48.50;;;;;;4994879;28;20108;-68
2022/02/15 08:47:07;;;;;;;1.80;0.90;;;20.90;48.60;;;;;;4996202;28;20280;-70
2022/02/15 08:49:36;;;;;;;2.45;1.00;;;20.90;48.60;;;;;;5010594;28;20108;-67
2022/02/15 08:52:03;;;;;;;1.73;1.00;;;20.90;48.50;;;;;;4996287;28;20446;-69
2022/02/15 08:54:29;;;;;;;1.58;0.85;;;20.90;48.60;;;;;;4995975;28;20026;-68
2022/02/15 08:56:55;;;;;;;1.65;0.95;;;20.90;49.10;;;;;;4998785;28;20027;-68
2022/02/15 08:59:20;;;;;;;2.00;0.95;;;20.90;48.60;;;;;;4998001;28;20070;-69
2022/02/15 09:01:47;;;;;;;1.80;0.90;;;20.90;48.90;;;;;;4998584;28;20042;-68
2022/02/15 09:04:14;;;;;;;1.33;0.80;;;20.90;48.60;;;;;;4999413;28;20032;-69
2022/02/15 09:06:41;;;;;;;2.03;1.05;;;20.90;48.60;;;;;;5000428;28;20030;-68
2022/02/15 09:09:08;;;;;;;1.67;0.85;;;20.90;48.50;;;;;;4999818;28;20054;-66
2022/02/15 09:11:33;;;;;;;1.63;0.90;;;20.90;48.60;;;;;;5001006;28;20577;-68
2022/02/15 09:13:59;;;;;;;2.03;1.05;;;20.90;48.60;;;;;;5011905;28;20109;-66
2022/02/15 09:16:24;;;;;;;1.75;1.00;;;20.80;48.50;;;;;;4999272;28;20057;-69
2022/02/15 09:18:50;;;;;;;1.98;1.02;;;20.90;48.60;;;;;;4998467;28;20038;-66
2022/02/15 09:21:17;;;;;;;1.75;0.90;;;20.90;48.60;;;;;;5000755;28;20332;-69
2022/02/15 09:23:43;;;;;;;2.35;1.20;;;20.90;48.60;;;;;;4999838;28;20443;-69
2022/02/15 09:26:09;;;;;;;2.03;1.00;;;20.90;48.60;;;;;;4998632;28;20030;-66
2022/02/15 09:28:35;;;;;;;1.83;1.00;;;20.80;48.60;;;;;;4997984;28;20021;-66
2022/02/15 09:31:01;;;;;;;1.13;0.88;;;20.90;48.60;;;;;;4995898;28;20045;-69
2022/02/15 09:33:26;;;;;;;1.70;0.90;;;20.80;48.50;;;;;;5014053;28;20022;-69
2022/02/15 09:35:52;;;;;;;2.08;0.95;;;20.80;48.60;;;;;;4999797;28;20509;-68
2022/02/15 09:38:18;;;;;;;1.63;1.00;;;20.80;48.50;;;;;;4999979;28;20043;-67
2022/02/15 09:40:44;;;;;;;2.05;1.20;;;20.80;48.60;;;;;;5000089;28;20474;-67
2022/02/15 09:43:13;;;;;;;1.73;0.95;;;20.90;48.60;;;;;;4999162;28;20023;-69
2022/02/15 09:45:39;;;;;;;1.30;0.90;;;20.80;48.60;;;;;;4998905;28;20191;-65
2022/02/15 09:48:08;;;;;;;1.85;1.00;;;20.80;48.50;;;;;;4998951;28;20042;-68
2022/02/15 09:50:35;;;;;;;2.65;1.17;;;20.80;48.60;;;;;;4998981;28;20512;-69
2022/02/15 09:53:01;;;;;;;1.60;1.00;;;20.90;48.60;;;;;;4999167;28;20113;-66
2022/02/15 09:55:27;;;;;;;1.50;0.90;;;20.80;48.50;;;;;;5000170;28;20030;-69
2022/02/15 09:57:53;;;;;;;2.03;1.15;;;20.80;48.50;;;;;;5014059;28;20040;-70
2022/02/15 10:00:21;;;;;;;2.05;1.02;;;20.90;48.60;;;;;;4995986;28;20526;-69
2022/02/15 10:02:48;;;;;;;2.10;1.10;;;20.90;48.60;;;;;;4999277;28;20057;-68
2022/02/15 10:05:16;;;;;;;1.80;0.85;;;20.90;48.60;;;;;;4998977;28;20146;-69
2022/02/15 10:07:56;;;;;;;1.88;0.90;;;20.90;48.60;;;;;;5014263;28;20030;-65
2022/02/15 10:10:28;;;;;;;2.47;1.00;;;20.90;48.60;;;;;;4998340;28;20019;-69
2022/02/15 10:13:05;;;;;;;1.73;0.90;;;20.90;48.60;;;;;;5013639;28;20022;-69
2022/02/15 10:15:36;;;;;;;2.05;0.90;;;20.90;48.60;;;;;;5003206;28;20031;-69
2022/02/15 10:18:13;;;;;;;1.38;0.85;;;20.80;48.50;;;;;;4998145;28;20034;-66
2022/02/15 10:20:42;;;;;;;1.48;0.85;;;20.90;48.60;;;;;;4995358;28;20030;-65
2022/02/15 10:23:14;;;;;;;1.63;0.80;;;20.80;49.10;;;;;;5004602;28;20034;-69
2022/02/15 10:25:39;;;;;;;2.10;1.00;;;20.90;48.60;;;;;;4998611;28;20501;-66
2022/02/15 10:28:25;;;;;;;1.67;1.10;;;20.90;48.60;;;;;;4997162;28;20129;-66
2022/02/15 10:30:54;;;;;;;2.22;0.90;;;20.90;48.60;;;;;;5011507;28;20392;-69
2022/02/15 10:33:44;;;;;;;1.90;0.90;;;20.80;48.50;;;;;;4996559;28;20125;-69
2022/02/15 10:36:11;;;;;;;1.45;1.00;;;20.90;48.60;;;;;;4997857;28;20638;-69
2022/02/15 10:38:49;;;;;;;1.58;0.93;;;20.80;48.60;;;;;;4998556;28;20242;-68
2022/02/15 10:41:21;;;;;;;1.80;1.00;;;20.90;48.60;;;;;;4996971;28;20657;-66
2022/02/15 10:43:46;;;;;;;1.50;0.88;;;20.80;48.60;;;;;;4996476;28;20022;-68
2022/02/15 10:46:14;;;;;;;1.42;1.00;;;20.80;48.50;;;;;;5011135;28;20040;-69
2022/02/15 10:48:41;;;;;;;1.80;0.90;;;20.80;48.60;;;;;;4997331;28;20048;-68
2022/02/15 10:51:07;;;;;;;1.88;1.00;;;20.80;48.50;;;;;;4995699;28;20470;-69
2022/02/15 10:53:34;;;;;;;2.00;0.93;;;20.80;48.60;;;;;;5011056;28;20018;-65
2022/02/15 10:55:59;;;;;;;1.50;0.88;;;20.80;48.60;;;;;;4999022;28;20505;-69
2022/02/15 10:58:26;;;;;;;2.20;1.00;;;20.90;48.60;;;;;;4995833;28;20030;-69
2022/02/15 11:00:53;;;;;;;1.38;0.90;;;20.80;48.60;;;;;;5011573;28;20133;-66
2022/02/15 11:03:21;;;;;;;1.70;0.93;;;20.90;48.60;;;;;;4998665;28;20034;-65
2022/02/15 11:05:48;;;;;;;1.55;0.90;;;20.80;48.60;;;;;;4999441;28;20065;-68
2022/02/15 11:08:15;;;;;;;1.85;1.00;;;20.90;48.60;;;;;;5000594;28;20106;-69
2022/02/15 11:10:47;;;;;;;1.63;1.00;;;20.80;48.60;;;;;;5010375;28;20061;-68
2022/02/15 11:13:13;;;;;;;1.48;1.10;;;20.80;48.60;;;;;;4996323;28;20462;-66
2022/02/15 11:15:41;;;;;;;1.60;0.85;;;20.80;48.60;;;;;;4994635;28;20038;-69
2022/02/15 11:18:16;;;;;;;2.00;1.13;;;20.90;48.60;;;;;;4996471;28;20164;-70
2022/02/15 11:20:50;;;;;;;1.98;1.13;;;20.80;48.60;;;;;;4996215;28;20022;-69
2022/02/15 11:23:18;;;;;;;1.50;0.90;;;20.90;48.60;;;;;;4996241;28;20042;-69
2022/02/15 11:25:47;;;;;;;2.35;1.00;;;20.80;48.60;;;;;;4997482;28;20038;-69
2022/02/15 11:28:15;;;;;;;1.90;1.02;;;20.90;48.60;;;;;;4995204;28;20447;-67
2022/02/15 11:30:46;;;;;;;1.90;1.10;;;20.90;48.60;;;;;;4994825;28;20524;-68
2022/02/15 11:33:18;;;;;;;2.33;1.15;;;20.90;48.60;;;;;;4997272;28;20026;-69
2022/02/15 11:35:55;;;;;;;1.73;1.08;;;20.90;48.60;;;;;;4998064;28;20022;-68
2022/02/15 11:38:23;;;;;;;2.75;1.00;;;20.90;48.60;;;;;;5013182;28;20029;-69
2022/02/15 11:41:01;;;;;;;1.85;1.10;;;20.90;48.60;;;;;;4997208;28;20064;-69
2022/02/15 11:43:27;;;;;;;2.05;1.00;;;20.90;48.60;;;;;;4997509;28;20048;-66
2022/02/15 11:45:53;;;;;;;1.40;0.90;;;20.90;48.60;;;;;;4995124;28;20030;-69
2022/02/15 11:48:18;;;;;;;1.77;1.00;;;20.90;48.60;;;;;;4997675;28;20030;-69
2022/02/15 11:50:51;;;;;;;1.88;0.90;;;20.90;49.10;;;;;;4996512;28;20440;-67
2022/02/15 11:53:18;;;;;;;2.03;1.00;;;20.90;48.60;;;;;;4998671;28;20502;-69
2022/02/15 11:55:44;;;;;;;1.45;0.82;;;20.90;48.60;;;;;;4997068;28;20027;-66
2022/02/15 11:58:12;;;;;;;1.80;1.10;;;20.90;48.60;;;;;;4995842;28;20069;-69
2022/02/15 12:00:40;;;;;;;1.58;0.80;;;20.90;48.60;;;;;;4995256;28;20509;-66
2022/02/15 12:03:06;;;;;;;1.45;0.90;;;20.90;48.60;;;;;;4996160;28;20033;-69
2022/02/15 12:05:36;;;;;;;1.45;0.90;;;20.90;48.60;;;;;;4997081;28;20026;-69
2022/02/15 12:08:02;;;;;;;1.63;1.00;;;20.90;48.50;;;;;;4997075;28;20029;-69
2022/02/15 12:10:39;;;;;;;1.50;0.80;;;20.90;48.50;;;;;;4995128;28;20463;-69
2022/02/15 12:13:13;;;;;;;1.25;0.80;;;20.90;48.60;;;;;;4996410;28;20025;-68
2022/02/15 12:15:38;;;;;;;1.50;0.90;;;20.90;48.60;;;;;;4995229;28;20449;-70
2022/02/15 12:18:04;;;;;;;1.80;0.80;;;20.90;48.50;;;;;;4996546;28;20026;-69
2022/02/15 12:20:30;;;;;;;1.70;0.90;;;20.90;48.50;;;;;;4997774;28;20499;-70
2022/02/15 12:22:55;;;;;;;1.23;0.73;;;20.90;48.50;;;;;;4997377;28;20030;-69
2022/02/15 12:25:22;;;;;;;2.65;1.08;;;20.90;48.60;;;;;;4996326;28;20034;-69
2022/02/15 12:27:48;;;;;;;1.38;0.82;;;20.90;48.50;;;;;;4994210;28;20110;-66
2022/02/15 12:30:16;;;;;;;1.60;0.80;;;20.90;48.50;;;;;;4992904;28;20045;-67
2022/02/15 12:32:44;;;;;;;2.10;1.10;;;20.90;48.50;;;;;;4992527;28;20034;-66
2022/02/15 12:35:11;;;;;;;2.42;1.00;;;20.90;48.50;;;;;;4993479;28;20418;-69
2022/02/15 12:37:37;;;;;;;2.13;1.10;;;20.90;48.50;;;;;;4994554;28;20030;-69
2022/02/15 12:40:06;;;;;;;1.45;0.80;;;20.90;48.60;;;;;;4993714;28;20461;-68
2022/02/15 12:42:34;;;;;;;1.95;0.90;;;21.00;48.60;;;;;;4994023;28;20039;-68
2022/02/15 12:45:03;;;;;;;2.50;0.90;;;21.00;48.60;;;;;;4996318;28;20425;-69
2022/02/15 12:47:31;;;;;;;1.40;0.80;;;21.00;48.60;;;;;;4993806;28;20381;-68
2022/02/15 12:49:58;;;;;;;2.33;1.00;;;21.00;48.60;;;;;;4994287;28;20136;-68
2022/02/15 12:52:28;;;;;;;2.10;1.00;;;21.00;48.60;;;;;;4994465;28;20022;-68